Time;durP1;ratioP1;P1;durP2;ratioP2;P2;SDS_P1;SDS_P2;PMS_P1;PMS_P2;Temp;Humidity;BMP_temperature;BMP_pressure;BME280_temperature;BME280_humidity;BME280_pressure;Samples;Min_cycle;Max_cycle;Signal;HPM_P1;HPM_P2
2021/09/04 13:13:22;;;;;;;8.33;5.10;;;29.30;44.90;;;;;;5072580;28;20624;-60
2021/09/04 13:15:48;;;;;;;8.90;5.10;;;29.50;43.70;;;;;;5032978;28;20574;-61
2021/09/04 13:18:13;;;;;;;7.00;5.43;;;29.10;43.10;;;;;;5034790;28;20186;-62
2021/09/04 13:20:39;;;;;;;8.10;5.30;;;28.50;45.10;;;;;;5050218;28;20173;-62
2021/09/04 13:23:05;;;;;;;8.80;5.10;;;27.90;46.10;;;;;;5055343;28;20306;-60
2021/09/04 13:25:30;;;;;;;7.30;4.97;;;27.30;47.40;;;;;;5051099;28;20181;-59
2021/09/04 13:27:56;;;;;;;6.60;5.33;;;26.70;48.50;;;;;;5049109;28;20189;-61
2021/09/04 13:30:22;;;;;;;6.30;5.03;;;26.20;49.20;;;;;;5047345;28;20174;-62
2021/09/04 13:32:47;;;;;;;7.53;5.40;;;25.80;49.80;;;;;;5054353;28;20190;-60
2021/09/04 13:35:13;;;;;;;10.80;5.40;;;25.40;50.80;;;;;;5057253;28;20583;-61
2021/09/04 13:37:39;;;;;;;6.43;5.20;;;25.10;51.90;;;;;;5047087;28;20277;-63
2021/09/04 13:40:06;;;;;;;6.03;5.37;;;24.80;53.10;;;;;;5029507;28;20638;-62
2021/09/04 13:42:31;;;;;;;5.93;5.33;;;24.50;52.90;;;;;;5038232;28;20223;-62
2021/09/04 13:44:57;;;;;;;9.43;5.50;;;24.30;53.70;;;;;;5045479;28;20509;-61
2021/09/04 13:47:24;;;;;;;7.50;5.10;;;24.10;53.80;;;;;;5048588;28;20605;-60
2021/09/04 13:49:50;;;;;;;7.13;5.50;;;24.00;54.60;;;;;;5050200;28;21058;-60
2021/09/04 13:52:15;;;;;;;7.20;4.87;;;23.90;55.60;;;;;;5049108;28;20468;-63
2021/09/04 13:54:41;;;;;;;11.83;6.33;;;23.80;56.10;;;;;;5048406;28;20523;-61
2021/09/04 13:57:07;;;;;;;6.00;5.20;;;23.70;56.10;;;;;;5040742;28;20265;-64
2021/09/04 13:59:32;;;;;;;10.00;5.67;;;23.60;56.30;;;;;;5037775;28;20224;-62
2021/09/04 14:01:58;;;;;;;6.77;5.63;;;23.50;55.90;;;;;;5053268;28;20198;-62
2021/09/04 14:04:23;;;;;;;12.80;6.30;;;23.40;56.00;;;;;;5057159;28;20651;-62
2021/09/04 14:06:49;;;;;;;9.83;6.00;;;23.40;56.30;;;;;;5060685;28;20201;-64
2021/09/04 14:09:15;;;;;;;5.80;4.43;;;23.30;56.80;;;;;;5043539;28;20183;-59
2021/09/04 14:11:40;;;;;;;7.60;5.50;;;23.20;57.10;;;;;;5048164;28;20195;-62
2021/09/04 14:14:06;;;;;;;9.10;6.30;;;23.20;57.80;;;;;;5042931;28;20657;-60
2021/09/04 14:16:32;;;;;;;6.17;5.10;;;23.20;58.10;;;;;;5052758;28;20185;-60
2021/09/04 14:18:57;;;;;;;7.00;5.00;;;23.40;58.50;;;;;;5051193;28;20190;-62
2021/09/04 14:21:23;;;;;;;8.17;5.47;;;24.10;58.70;;;;;;5051697;28;20207;-61
2021/09/04 14:23:49;;;;;;;16.30;5.53;;;24.60;57.10;;;;;;5053787;28;20195;-61
2021/09/04 14:26:14;;;;;;;6.17;5.57;;;24.80;57.30;;;;;;5043726;28;20689;-61
2021/09/04 14:28:40;;;;;;;7.33;5.20;;;25.40;58.30;;;;;;5023639;28;20179;-63
2021/09/04 14:31:06;;;;;;;7.43;5.97;;;25.90;57.00;;;;;;5037444;28;20747;-64
2021/09/04 14:33:31;;;;;;;7.50;5.60;;;26.40;56.30;;;;;;5032814;28;20195;-63
2021/09/04 14:35:57;;;;;;;9.60;5.43;;;27.00;54.20;;;;;;5019655;28;20807;-60
2021/09/04 14:38:23;;;;;;;8.53;6.00;;;27.50;52.70;;;;;;5029007;28;20214;-63
2021/09/04 14:40:48;;;;;;;6.97;4.93;;;27.80;50.10;;;;;;5042038;28;20421;-61
2021/09/04 14:43:14;;;;;;;8.57;4.93;;;27.50;49.00;;;;;;5033391;28;20252;-62
2021/09/04 14:45:41;;;;;;;5.80;4.90;;;26.90;47.80;;;;;;5034906;28;20172;-61
2021/09/04 14:48:07;;;;;;;6.23;4.83;;;26.30;47.00;;;;;;5035910;28;20178;-61
2021/09/04 14:50:32;;;;;;;6.43;5.63;;;25.70;48.70;;;;;;5035999;28;21263;-62
2021/09/04 14:55:32;;;;;;;6.00;5.20;;;24.70;52.60;;;;;;5042004;23;20231;-60
2021/09/04 14:57:57;;;;;;;8.17;5.63;;;24.30;54.00;;;;;;5021118;28;20431;-58
2021/09/04 15:00:23;;;;;;;6.73;4.83;;;24.00;54.80;;;;;;5020786;28;20710;-59
2021/09/04 15:02:51;;;;;;;5.70;5.10;;;23.70;55.70;;;;;;5019586;28;20207;-58
2021/09/04 15:05:16;;;;;;;6.80;5.40;;;23.50;56.10;;;;;;5025861;28;20222;-60
2021/09/04 15:07:42;;;;;;;9.63;5.70;;;23.30;56.70;;;;;;5020875;28;20552;-59
2021/09/04 15:10:08;;;;;;;8.70;6.93;;;23.20;57.20;;;;;;5022192;28;20232;-60
2021/09/04 15:12:34;;;;;;;9.93;6.63;;;23.00;58.20;;;;;;5015557;28;20219;-59
2021/09/04 15:15:00;;;;;;;12.87;6.60;;;23.00;57.70;;;;;;5024934;28;21117;-59
2021/09/04 15:17:25;;;;;;;9.47;6.03;;;23.20;57.20;;;;;;5022055;28;20176;-63
2021/09/04 15:19:51;;;;;;;7.23;6.50;;;23.60;56.70;;;;;;5026708;28;20183;-61
2021/09/04 15:22:16;;;;;;;8.20;6.60;;;24.10;55.70;;;;;;5026222;28;20196;-59
2021/09/04 15:24:42;;;;;;;9.07;6.97;;;24.80;54.60;;;;;;5028468;28;20203;-61
2021/09/04 15:27:08;;;;;;;8.50;6.43;;;25.50;55.00;;;;;;5027102;28;20214;-59
2021/09/04 15:29:33;;;;;;;11.07;6.50;;;26.10;53.60;;;;;;5031166;28;20168;-59
2021/09/04 15:31:59;;;;;;;11.10;6.97;;;26.20;52.30;;;;;;5028898;28;20685;-59
2021/09/04 15:34:25;;;;;;;8.63;6.77;;;26.30;52.60;;;;;;5028507;28;20196;-62
2021/09/04 15:36:50;;;;;;;9.20;6.37;;;26.50;52.10;;;;;;5028413;28;20182;-59
2021/09/04 15:39:16;;;;;;;8.27;6.40;;;26.50;51.90;;;;;;5028888;28;20175;-59
2021/09/04 15:41:42;;;;;;;7.60;6.50;;;26.20;52.60;;;;;;5010736;28;20199;-57
2021/09/04 15:44:11;;;;;;;8.37;6.37;;;25.80;52.80;;;;;;5023578;28;20195;-58
2021/09/04 15:46:37;;;;;;;14.13;5.87;;;25.50;53.50;;;;;;5029241;28;20535;-58
2021/09/04 15:49:03;;;;;;;7.20;6.40;;;25.10;53.50;;;;;;5028615;28;20419;-59
2021/09/04 15:51:29;;;;;;;8.07;6.10;;;24.80;54.00;;;;;;5026398;28;20439;-59
2021/09/04 15:53:54;;;;;;;13.83;6.50;;;24.50;53.90;;;;;;5024287;28;20465;-59
2021/09/04 15:56:20;;;;;;;12.70;6.83;;;24.30;54.60;;;;;;5023603;28;20549;-59
2021/09/04 15:58:46;;;;;;;8.60;6.60;;;24.10;54.70;;;;;;5026802;28;20536;-59
2021/09/04 16:01:12;;;;;;;16.57;7.03;;;23.90;55.40;;;;;;5026433;28;20675;-58
2021/09/04 16:03:37;;;;;;;7.97;6.03;;;23.70;56.60;;;;;;5028365;28;20199;-58
2021/09/04 16:06:04;;;;;;;12.30;6.33;;;23.60;57.90;;;;;;5029323;28;20168;-58
2021/09/04 16:08:30;;;;;;;7.27;6.10;;;23.40;59.10;;;;;;5027664;28;20179;-57
2021/09/04 16:10:56;;;;;;;7.67;6.37;;;23.20;58.50;;;;;;5028653;28;20415;-58
2021/09/04 16:13:22;;;;;;;10.10;6.50;;;23.00;59.30;;;;;;5026918;28;20427;-58
2021/09/04 16:15:48;;;;;;;8.43;6.27;;;22.90;58.20;;;;;;5027023;28;20183;-58
2021/09/04 16:18:13;;;;;;;7.70;6.43;;;22.80;58.30;;;;;;5009631;28;20191;-58
2021/09/04 16:20:39;;;;;;;9.93;7.43;;;22.80;58.90;;;;;;5028484;28;20172;-59
2021/09/04 16:23:06;;;;;;;13.70;8.53;;;22.80;58.40;;;;;;5028821;28;20207;-56
2021/09/04 16:25:32;;;;;;;8.43;7.23;;;22.70;57.60;;;;;;5029600;28;20242;-61
2021/09/04 16:27:58;;;;;;;9.20;6.77;;;22.70;58.80;;;;;;5028329;28;20973;-59
2021/09/04 16:30:24;;;;;;;8.60;6.57;;;22.70;59.80;;;;;;5026888;28;20426;-58
2021/09/04 16:32:50;;;;;;;7.30;5.40;;;22.60;61.10;;;;;;5011089;28;20445;-59
2021/09/04 16:35:16;;;;;;;6.93;6.17;;;22.50;61.50;;;;;;5028419;28;20446;-59
2021/09/04 16:37:41;;;;;;;7.83;6.17;;;22.40;61.60;;;;;;5024887;28;20180;-59
2021/09/04 16:40:08;;;;;;;11.00;6.57;;;22.30;62.90;;;;;;5027966;28;20699;-58
2021/09/04 16:42:34;;;;;;;8.40;6.30;;;22.20;63.90;;;;;;5026756;28;20809;-60
2021/09/04 16:44:59;;;;;;;7.67;6.77;;;22.10;65.60;;;;;;5023055;28;20450;-55
2021/09/04 16:47:25;;;;;;;11.53;6.83;;;22.00;67.50;;;;;;5021780;28;20541;-56
2021/09/04 16:49:51;;;;;;;11.00;7.40;;;21.90;66.80;;;;;;5020071;28;20184;-56
2021/09/04 16:52:19;;;;;;;12.80;7.40;;;21.80;69.40;;;;;;5007382;28;20438;-56
2021/09/04 16:54:48;;;;;;;12.00;7.13;;;21.80;71.90;;;;;;5024931;28;20695;-55
2021/09/04 16:57:14;;;;;;;12.00;7.90;;;21.70;72.40;;;;;;5023074;28;20430;-59
2021/09/04 16:59:40;;;;;;;10.10;6.57;;;21.60;72.60;;;;;;5027058;28;20472;-58
2021/09/04 17:02:06;;;;;;;9.50;7.50;;;21.60;74.30;;;;;;5028014;28;20663;-59
2021/09/04 17:04:32;;;;;;;10.23;7.17;;;21.50;74.90;;;;;;5003067;28;20506;-58
2021/09/04 17:06:57;;;;;;;9.40;7.80;;;21.50;75.90;;;;;;5027012;28;20998;-58
2021/09/04 17:09:23;;;;;;;11.30;7.40;;;21.40;76.60;;;;;;5029654;28;20167;-59
2021/09/04 17:11:49;;;;;;;10.50;7.80;;;21.30;76.90;;;;;;5026585;28;20606;-58
2021/09/04 17:14:14;;;;;;;16.30;7.43;;;21.20;78.20;;;;;;5028367;28;20659;-58
2021/09/04 17:16:40;;;;;;;10.03;7.90;;;21.10;78.60;;;;;;5026749;28;20179;-58
2021/09/04 17:19:06;;;;;;;18.23;10.80;;;21.10;79.10;;;;;;5027085;28;20225;-57
2021/09/04 17:21:31;;;;;;;17.53;11.30;;;21.00;79.50;;;;;;5024597;28;20243;-59
2021/09/04 17:23:57;;;;;;;18.33;11.07;;;20.90;80.30;;;;;;5030519;28;20191;-57
2021/09/04 17:26:23;;;;;;;13.60;9.50;;;20.90;83.00;;;;;;5023251;28;20176;-57
2021/09/04 17:28:48;;;;;;;12.80;8.93;;;20.80;85.10;;;;;;5026747;28;20182;-56
2021/09/04 17:31:14;;;;;;;14.27;9.10;;;20.70;85.90;;;;;;5021688;28;20168;-58
2021/09/04 17:33:42;;;;;;;15.00;7.83;;;20.60;87.20;;;;;;5015352;28;20641;-58
2021/09/04 17:36:09;;;;;;;13.40;8.53;;;20.50;87.70;;;;;;5014072;28;20415;-58
2021/09/04 17:38:38;;;;;;;15.00;8.70;;;20.40;87.70;;;;;;5019415;28;20417;-57
2021/09/04 17:41:04;;;;;;;13.40;9.20;;;20.30;86.90;;;;;;5012506;28;20456;-58
2021/09/04 17:43:30;;;;;;;12.47;8.90;;;20.20;87.30;;;;;;5026048;28;20529;-57
2021/09/04 17:45:56;;;;;;;13.03;8.30;;;20.10;89.90;;;;;;5023319;28;20406;-57
2021/09/04 17:48:23;;;;;;;18.77;10.70;;;20.10;90.60;;;;;;5025919;28;20433;-57
2021/09/04 17:50:49;;;;;;;15.33;10.00;;;19.90;91.10;;;;;;5025804;28;20172;-57
2021/09/04 17:53:15;;;;;;;13.63;10.30;;;19.80;92.10;;;;;;5020171;28;20427;-57
2021/09/04 17:55:40;;;;;;;13.83;9.83;;;19.70;92.80;;;;;;5020000;28;20928;-58
2021/09/04 17:58:09;;;;;;;13.90;10.00;;;19.60;93.40;;;;;;5020616;28;20490;-57
2021/09/04 18:00:38;;;;;;;10.90;8.77;;;19.50;94.60;;;;;;5021082;28;20171;-57
2021/09/04 18:03:03;;;;;;;15.20;9.13;;;19.40;95.00;;;;;;5025005;28;21219;-57
2021/09/04 18:05:32;;;;;;;14.30;9.97;;;19.40;95.70;;;;;;5020569;28;20455;-56
2021/09/04 18:07:57;;;;;;;12.03;9.40;;;19.30;96.10;;;;;;5020968;28;20191;-57
2021/09/04 18:10:23;;;;;;;13.30;9.77;;;19.20;96.60;;;;;;5024592;28;20480;-59
2021/09/04 18:12:51;;;;;;;12.27;9.20;;;19.10;97.20;;;;;;5022446;28;20194;-59
2021/09/04 18:15:17;;;;;;;12.17;9.07;;;19.00;97.70;;;;;;5021464;28;20200;-57
2021/09/04 18:17:44;;;;;;;15.57;9.97;;;18.90;98.10;;;;;;5024950;28;20460;-57
2021/09/04 18:20:10;;;;;;;12.03;9.40;;;18.90;98.30;;;;;;5016259;28;20278;-58
2021/09/04 18:22:35;;;;;;;15.80;9.93;;;18.80;98.60;;;;;;5021185;28;20454;-57
2021/09/04 18:25:01;;;;;;;12.90;9.43;;;18.70;98.50;;;;;;5014566;28;20445;-57
2021/09/04 18:27:26;;;;;;;10.30;8.00;;;18.60;97.90;;;;;;5019031;28;20194;-59
2021/09/04 18:29:52;;;;;;;11.50;7.10;;;18.50;97.40;;;;;;5020454;28;20179;-58
2021/09/04 18:32:18;;;;;;;8.83;7.10;;;18.40;97.30;;;;;;5002136;28;20262;-59
2021/09/04 18:34:46;;;;;;;10.90;7.20;;;18.30;97.10;;;;;;5026309;28;20278;-59
2021/09/04 18:37:11;;;;;;;13.03;8.37;;;18.30;97.30;;;;;;5021311;28;20446;-59
2021/09/04 18:39:37;;;;;;;12.80;8.30;;;18.20;97.70;;;;;;5025453;28;20438;-60
2021/09/04 18:42:03;;;;;;;13.23;9.00;;;18.10;97.90;;;;;;5027068;28;20193;-59
2021/09/04 18:44:28;;;;;;;12.30;8.23;;;18.00;98.30;;;;;;5008193;28;20810;-59
2021/09/04 18:46:54;;;;;;;11.23;9.13;;;18.00;98.60;;;;;;5025139;28;20188;-59
2021/09/04 18:49:19;;;;;;;14.43;8.70;;;17.90;98.70;;;;;;5027257;28;20179;-60
2021/09/04 18:51:45;;;;;;;9.97;7.27;;;17.80;99.10;;;;;;5029368;28;20168;-60
2021/09/04 18:54:11;;;;;;;12.17;7.77;;;17.80;99.20;;;;;;5027691;28;20834;-60
2021/09/04 18:56:36;;;;;;;10.20;8.10;;;17.80;99.10;;;;;;5024527;28;20199;-58
2021/09/04 18:59:02;;;;;;;10.00;8.07;;;17.70;99.40;;;;;;5011930;28;20212;-58
2021/09/04 19:01:28;;;;;;;14.53;8.07;;;17.70;99.60;;;;;;5029671;28;20191;-59
2021/09/04 19:03:55;;;;;;;14.70;9.67;;;17.60;99.80;;;;;;5025439;28;20250;-58
2021/09/04 19:06:21;;;;;;;11.43;7.60;;;17.60;99.90;;;;;;5014293;28;20259;-60
2021/09/04 19:08:49;;;;;;;11.00;7.77;;;17.60;99.90;;;;;;5021581;28;20514;-59
2021/09/04 19:11:15;;;;;;;10.80;7.53;;;17.50;99.90;;;;;;5021308;28;20175;-60
2021/09/04 19:13:41;;;;;;;9.10;7.40;;;17.50;99.90;;;;;;5022678;28;20443;-61
2021/09/04 19:16:07;;;;;;;12.10;8.50;;;17.50;99.90;;;;;;5029306;28;20180;-59
2021/09/04 19:18:32;;;;;;;13.63;7.23;;;17.50;99.90;;;;;;5029824;28;20464;-59
2021/09/04 19:20:58;;;;;;;13.63;8.27;;;17.50;99.90;;;;;;5028227;28;20415;-60
2021/09/04 19:23:23;;;;;;;13.40;8.27;;;17.50;99.90;;;;;;5025511;28;20212;-57
2021/09/04 19:25:49;;;;;;;12.93;8.70;;;17.40;99.90;;;;;;5023822;28;20262;-57
2021/09/04 19:28:15;;;;;;;10.60;7.80;;;17.40;99.90;;;;;;5022490;28;20297;-62
2021/09/04 19:30:40;;;;;;;10.87;8.23;;;17.40;99.90;;;;;;5006679;28;20186;-58
2021/09/04 19:33:07;;;;;;;11.53;8.50;;;17.30;99.90;;;;;;5023764;28;20214;-58
2021/09/04 19:35:33;;;;;;;11.67;8.20;;;17.20;99.90;;;;;;5022913;28;20566;-58
2021/09/04 19:38:02;;;;;;;13.30;8.30;;;17.20;99.90;;;;;;5028943;28;20783;-59
2021/09/04 19:40:28;;;;;;;15.20;8.57;;;17.20;99.90;;;;;;5027930;28;20513;-59
2021/09/04 19:42:54;;;;;;;13.93;8.27;;;17.10;99.90;;;;;;5028059;28;20458;-60
2021/09/04 19:45:19;;;;;;;10.63;7.70;;;17.10;99.90;;;;;;5020555;28;20195;-58
2021/09/04 19:47:45;;;;;;;11.70;8.97;;;17.00;99.90;;;;;;5026647;28;20698;-61
2021/09/04 19:50:11;;;;;;;10.53;7.63;;;17.00;99.90;;;;;;5019726;28;20182;-57
2021/09/04 19:52:37;;;;;;;10.37;8.63;;;16.90;99.90;;;;;;5024430;28;20702;-60
2021/09/04 19:55:03;;;;;;;11.53;8.70;;;16.80;99.90;;;;;;5015407;28;20545;-59
2021/09/04 19:57:29;;;;;;;10.27;7.67;;;16.80;99.90;;;;;;5025988;28;20186;-59
2021/09/04 19:59:55;;;;;;;16.60;9.00;;;16.70;99.90;;;;;;5018192;28;20473;-59
2021/09/04 20:02:20;;;;;;;13.80;9.47;;;16.60;99.90;;;;;;5016134;28;20203;-62
2021/09/04 20:04:46;;;;;;;13.13;9.20;;;16.60;99.90;;;;;;5019845;28;20191;-59
2021/09/04 20:07:11;;;;;;;23.47;12.47;;;16.50;99.90;;;;;;5019546;28;20188;-60
2021/09/04 20:09:37;;;;;;;27.03;13.70;;;16.50;99.90;;;;;;5020740;28;20192;-58
2021/09/04 20:12:03;;;;;;;22.30;13.40;;;16.40;99.90;;;;;;5024141;28;20225;-60
2021/09/04 20:14:29;;;;;;;26.57;15.03;;;16.30;99.90;;;;;;5026805;28;20195;-59
2021/09/04 20:16:54;;;;;;;24.90;11.50;;;16.30;99.90;;;;;;5025475;28;20991;-60
2021/09/04 20:19:20;;;;;;;13.90;10.10;;;16.20;99.90;;;;;;5020171;28;20211;-57
2021/09/04 20:21:46;;;;;;;13.57;9.00;;;16.20;99.90;;;;;;5021764;28;20239;-58
2021/09/04 20:24:11;;;;;;;13.10;8.57;;;16.10;99.90;;;;;;5024701;28;20207;-58
2021/09/04 20:26:37;;;;;;;14.33;9.27;;;16.10;99.90;;;;;;5021782;28;20177;-58
2021/09/04 20:29:03;;;;;;;11.13;8.93;;;16.10;99.90;;;;;;5024777;28;20229;-58
2021/09/04 20:31:29;;;;;;;10.30;7.30;;;16.00;99.90;;;;;;5030079;28;20262;-58
2021/09/04 20:33:56;;;;;;;9.20;7.80;;;16.00;99.90;;;;;;5025196;28;20199;-58
2021/09/04 20:36:49;;;;;;;9.90;7.23;;;15.90;99.90;;;;;;5024341;28;20195;-59
2021/09/04 20:39:18;;;;;;;14.63;7.60;;;15.90;99.90;;;;;;4999348;28;20841;-61
2021/09/04 20:41:54;;;;;;;9.60;6.73;;;15.80;99.90;;;;;;5034344;28;20534;-60
2021/09/04 20:44:25;;;;;;;13.83;8.47;;;15.80;99.90;;;;;;5032193;28;20445;-58
2021/09/04 20:46:59;;;;;;;11.20;8.37;;;15.70;99.90;;;;;;5008362;28;20430;-58
2021/09/04 20:49:26;;;;;;;15.10;8.90;;;15.70;99.90;;;;;;4994767;28;20434;-58
2021/09/04 20:51:53;;;;;;;11.10;8.87;;;15.60;99.90;;;;;;5020224;28;20895;-58
2021/09/04 20:54:18;;;;;;;13.70;8.43;;;15.60;99.90;;;;;;5037145;22;20510;-60
2021/09/04 20:56:45;;;;;;;12.37;8.23;;;15.50;99.90;;;;;;5001837;28;20447;-60
2021/09/04 20:59:11;;;;;;;10.53;7.73;;;15.50;99.90;;;;;;5007217;28;20177;-61
2021/09/04 21:01:38;;;;;;;11.30;8.00;;;15.40;99.90;;;;;;5002806;28;20456;-61
2021/09/04 21:04:04;;;;;;;12.37;8.23;;;15.30;99.90;;;;;;5003550;28;20439;-60
2021/09/04 21:06:30;;;;;;;11.10;7.73;;;15.30;99.90;;;;;;5003722;28;20411;-59
2021/09/04 21:08:57;;;;;;;10.77;8.00;;;15.20;99.90;;;;;;4991307;28;20510;-61
2021/09/04 21:11:24;;;;;;;9.27;7.53;;;15.20;99.90;;;;;;4998123;28;20949;-59
2021/09/04 21:13:50;;;;;;;14.53;8.30;;;15.20;99.90;;;;;;4980931;28;20451;-60
2021/09/04 21:16:17;;;;;;;12.13;6.97;;;15.10;99.90;;;;;;5002038;28;20879;-60
2021/09/04 21:18:43;;;;;;;11.53;7.00;;;15.10;99.90;;;;;;4998958;28;20482;-59
2021/09/04 21:21:10;;;;;;;11.10;7.73;;;15.00;99.90;;;;;;4999733;28;20538;-60
2021/09/04 21:23:36;;;;;;;15.10;7.93;;;15.00;99.90;;;;;;4990558;28;20205;-60
2021/09/04 21:26:03;;;;;;;10.90;7.37;;;15.00;99.90;;;;;;4978916;28;20463;-55
2021/09/04 21:28:29;;;;;;;11.97;8.30;;;15.00;99.90;;;;;;4994564;28;20431;-60
2021/09/04 21:30:57;;;;;;;10.77;7.63;;;15.00;99.90;;;;;;5000869;28;20450;-61
2021/09/04 21:33:23;;;;;;;12.83;7.63;;;14.90;99.90;;;;;;4997437;28;20180;-60
2021/09/04 21:35:48;;;;;;;12.83;8.80;;;14.90;99.90;;;;;;4983014;28;20457;-61
2021/09/04 21:38:14;;;;;;;14.40;8.20;;;14.90;99.90;;;;;;5003288;28;20197;-61
2021/09/04 21:40:40;;;;;;;11.93;8.87;;;14.80;99.90;;;;;;5001558;28;20180;-61
2021/09/04 21:43:05;;;;;;;10.60;8.13;;;14.80;99.90;;;;;;5006912;28;20219;-61
2021/09/04 21:45:31;;;;;;;10.83;7.37;;;14.70;99.90;;;;;;5004226;28;21289;-61
2021/09/04 21:47:57;;;;;;;10.13;7.90;;;14.70;99.90;;;;;;5006488;28;20181;-61
2021/09/04 21:50:22;;;;;;;16.03;7.90;;;14.60;99.90;;;;;;5004838;28;20172;-61
2021/09/04 21:52:48;;;;;;;11.07;7.37;;;14.60;99.90;;;;;;5004886;28;20192;-61
2021/09/04 21:55:13;;;;;;;9.63;7.00;;;14.50;99.90;;;;;;5003807;28;20220;-61
2021/09/04 21:57:39;;;;;;;11.77;7.70;;;14.50;99.90;;;;;;5003605;28;20184;-61
2021/09/04 22:00:18;;;;;;;10.10;7.40;;;14.50;99.90;;;;;;4987453;28;20192;-60
2021/09/04 22:02:44;;;;;;;11.67;7.50;;;14.50;99.90;;;;;;5004070;28;20966;-60
2021/09/04 22:05:10;;;;;;;11.77;7.83;;;14.40;99.90;;;;;;5005651;28;20463;-61
2021/09/04 22:07:35;;;;;;;10.20;7.60;;;14.40;99.90;;;;;;5004045;28;20550;-61
2021/09/04 22:10:01;;;;;;;12.17;7.90;;;14.30;99.90;;;;;;4983841;28;20432;-60
2021/09/04 22:12:26;;;;;;;10.53;7.70;;;14.30;99.90;;;;;;5005609;28;20617;-61
2021/09/04 22:14:52;;;;;;;11.60;8.03;;;14.30;99.90;;;;;;5005267;28;20200;-61
2021/09/04 22:17:18;;;;;;;10.40;7.77;;;14.20;99.90;;;;;;5005118;28;20260;-60
2021/09/04 22:19:43;;;;;;;10.60;7.90;;;14.20;99.90;;;;;;4990034;28;20690;-60
2021/09/04 22:22:09;;;;;;;12.27;7.33;;;14.20;99.90;;;;;;5004259;28;20220;-60
2021/09/04 22:24:35;;;;;;;10.83;7.57;;;14.20;99.90;;;;;;5005657;28;20251;-60
2021/09/04 22:27:00;;;;;;;16.30;8.37;;;14.10;99.90;;;;;;5003913;28;20183;-61
2021/09/04 22:29:26;;;;;;;11.50;7.60;;;14.10;99.90;;;;;;5010161;28;20176;-60
2021/09/04 22:31:51;;;;;;;12.83;7.70;;;14.00;99.90;;;;;;5004299;28;20203;-60
2021/09/04 22:34:18;;;;;;;17.60;8.63;;;14.00;99.90;;;;;;5004967;28;20258;-61
2021/09/04 22:38:09;;;;;;;13.87;7.77;;;14.00;99.90;;;;;;5004110;28;20250;-60
2021/09/04 22:39:30;;;;;;;15.13;7.87;;;14.00;99.90;;;;;;5002957;28;20998;-61
2021/09/04 22:41:56;;;;;;;11.97;7.30;;;14.00;99.90;;;;;;5003727;28;20820;-61
2021/09/04 22:44:22;;;;;;;22.93;7.10;;;14.00;99.90;;;;;;5002027;28;20451;-61
2021/09/04 22:46:48;;;;;;;9.17;6.77;;;13.90;99.90;;;;;;4999585;28;20645;-60
2021/09/04 22:49:16;;;;;;;9.67;7.40;;;13.90;99.90;;;;;;5009431;28;20564;-61
2021/09/04 22:51:42;;;;;;;11.83;7.20;;;13.90;99.90;;;;;;4992678;28;20537;-61
2021/09/04 22:54:08;;;;;;;15.73;7.97;;;13.80;99.90;;;;;;5016704;28;20562;-61
2021/09/04 22:56:34;;;;;;;13.60;8.23;;;13.80;99.90;;;;;;4993151;28;20471;-60
2021/09/04 22:58:59;;;;;;;13.43;7.77;;;13.80;99.90;;;;;;5008993;28;20295;-60
2021/09/04 23:01:25;;;;;;;8.90;7.10;;;13.70;99.90;;;;;;5008932;28;20534;-60
2021/09/04 23:03:50;;;;;;;11.83;8.67;;;13.70;99.90;;;;;;5006433;28;20267;-60
2021/09/04 23:06:16;;;;;;;12.50;8.10;;;13.70;99.90;;;;;;5008664;28;20571;-60
2021/09/04 23:08:42;;;;;;;16.67;7.53;;;13.60;99.90;;;;;;5009691;28;20176;-60
2021/09/04 23:11:07;;;;;;;9.37;7.17;;;13.60;99.90;;;;;;5009126;28;20176;-60
2021/09/04 23:13:36;;;;;;;12.20;7.40;;;13.60;99.90;;;;;;5008297;28;20177;-60
2021/09/04 23:16:02;;;;;;;13.50;7.80;;;13.60;99.90;;;;;;5009575;28;20470;-60
2021/09/04 23:18:27;;;;;;;12.33;8.10;;;13.50;99.90;;;;;;5010467;28;20436;-60
2021/09/04 23:20:53;;;;;;;10.73;7.87;;;13.50;99.90;;;;;;5008413;28;20169;-61
2021/09/04 23:23:19;;;;;;;9.77;7.57;;;13.40;99.90;;;;;;5003887;28;20274;-60
2021/09/04 23:25:49;;;;;;;10.30;7.50;;;13.40;99.90;;;;;;5008731;28;20199;-60
2021/09/04 23:28:15;;;;;;;10.67;7.17;;;13.40;99.90;;;;;;5010256;28;20263;-60
2021/09/04 23:30:42;;;;;;;8.40;6.33;;;13.40;99.90;;;;;;5012107;28;20416;-60
2021/09/04 23:33:07;;;;;;;11.60;7.93;;;13.40;99.90;;;;;;4992638;28;20439;-61
2021/09/04 23:35:33;;;;;;;11.03;7.17;;;13.30;99.90;;;;;;5008729;28;20760;-61
2021/09/04 23:37:59;;;;;;;10.67;7.37;;;13.30;99.90;;;;;;5010538;28;20177;-61
2021/09/04 23:40:25;;;;;;;8.03;6.10;;;13.30;99.90;;;;;;5008812;28;20427;-60
2021/09/04 23:42:51;;;;;;;10.00;6.83;;;13.20;99.90;;;;;;5004814;28;21045;-59
2021/09/04 23:45:18;;;;;;;10.40;7.40;;;13.20;99.90;;;;;;5004062;28;20196;-61
2021/09/04 23:47:43;;;;;;;11.77;7.27;;;13.20;99.90;;;;;;5008563;28;20548;-61
2021/09/04 23:50:10;;;;;;;11.10;7.00;;;13.10;99.90;;;;;;5011596;28;20515;-61
2021/09/04 23:52:36;;;;;;;12.30;7.50;;;13.10;99.90;;;;;;5013111;28;20173;-60
2021/09/04 23:55:03;;;;;;;10.57;6.63;;;13.10;99.90;;;;;;5009826;28;20470;-61
2021/09/04 23:57:29;;;;;;;10.10;7.00;;;13.10;99.90;;;;;;4991931;28;20446;-60
2021/09/04 23:59:55;;;;;;;9.10;7.23;;;13.00;99.90;;;;;;5008297;28;20932;-60
